Terminal Aerodrome Forecast
Issued by NWS

Home | Current Version | Previous Version | Text Only | Print | Product List | Glossary On
Versions: 1 2 3 4 5 6 7 8 9 10 11 12 13 14 15 16 17
000
FTUS44 KCRP 100500
TAFLRD
TAF
KLRD 100525Z 1006/1106 14010KT P6SM VCSH FEW070 BKN150
     FM100800 14010KT P6SM SCT025 BKN150
     FM101500 15015G20KT P6SM VCTS SCT030CB BKN150
     FM110300 14011KT P6SM OVC050=

USA.gov is the U.S. government's official web portal to all federal, state and local government web resources and services.